Kirby, Wyoming
Current Conditions -  °F | °C
As of 6:53 AM on Saturday 25 Oct 2014 (Local Time) from KWRL Reporting Station
Clear Clear  
Wind Chill: 31°   Ceiling: Unl
Heat Index: 31°   Visibility: 10mi
Dew Point: 28°   Wind: 3mph
Humidity: 89%   Direction: 30°NNE
Pressure: 30.08"   Gusts: NA
Location:  43.8°N, 108.18°W
Report Text: KWRL 251253Z AUTO 03003KT 10SM CLR M01/M02 A3008 RMK AO2 SLP193 T10061022
Loading
Personal Weather Stations






























Interactive Weather Map
Tropical Storm Tracking
New forecast layout! Learn more

10-Day Weather Forecast

Advertisements
Track Severe Weather on mobile